createdAt,value
2019-04-23T00:03:59.567Z,10.47
2019-04-23T00:06:32.285Z,6.80
2019-04-23T00:09:20.498Z,11.37
2019-04-23T00:11:37.427Z,9.00
2019-04-23T00:14:07.103Z,6.27
2019-04-23T00:16:51.152Z,8.87
2019-04-23T00:19:04.592Z,12.10
2019-04-23T00:21:52.154Z,5.93
2019-04-23T00:25:07.186Z,6.93
2019-04-23T00:27:24.056Z,7.73
2019-04-23T00:29:46.267Z,10.03
2019-04-23T00:32:15.674Z,5.70
2019-04-23T00:34:49.608Z,9.27
2019-04-23T00:37:23.803Z,8.50
2019-04-23T00:39:47.063Z,8.40
2019-04-23T00:42:23.541Z,6.97
2019-04-23T00:44:52.800Z,7.10
2019-04-23T00:47:22.360Z,7.90
2019-04-23T00:49:54.541Z,9.70
2019-04-23T00:52:24.001Z,9.80
2019-04-23T00:54:51.886Z,9.67
2019-04-23T00:57:25.837Z,8.17
2019-04-23T00:59:53.710Z,7.00
2019-04-23T01:02:23.471Z,7.13
2019-04-23T01:04:59.696Z,6.50
2019-04-23T01:07:20.086Z,6.33
2019-04-23T01:09:59.762Z,8.27
2019-04-23T01:12:31.722Z,7.43
2019-04-23T01:14:58.843Z,7.30
2019-04-23T01:20:14.272Z,7.93
2019-04-23T01:22:14.611Z,7.77
2019-04-23T01:24:46.684Z,8.87
2019-04-23T01:27:55.898Z,9.13
2019-04-23T01:30:17.988Z,9.63
2019-04-23T01:32:44.030Z,8.03
2019-04-23T01:35:17.886Z,7.60
2019-04-23T01:37:47.747Z,8.57
2019-04-23T01:40:18.789Z,7.07
2019-04-23T01:42:58.693Z,8.70
2019-04-23T01:45:20.383Z,7.30
2019-04-23T01:47:50.020Z,9.17
2019-04-23T01:52:52.342Z,11.80
2019-04-23T01:55:21.246Z,9.50
2019-04-23T01:57:58.986Z,8.27
2019-04-23T02:00:22.418Z,7.40
2019-04-23T02:02:57.822Z,7.20
2019-04-23T02:05:28.489Z,8.93
2019-04-23T02:08:00.309Z,9.17
2019-04-23T02:13:06.489Z,10.53
2019-04-23T02:15:34.931Z,9.17
2019-04-23T02:18:08.861Z,8.43
2019-04-23T02:20:37.408Z,9.50
2019-04-23T02:23:26.583Z,11.43
2019-04-23T02:28:19.952Z,8.10
2019-04-23T02:31:13.997Z,9.40
2019-04-23T02:33:45.049Z,7.77
2019-04-23T02:43:22.269Z,9.37
2019-04-23T02:48:38.180Z,9.50
2019-04-23T02:50:54.154Z,13.07
2019-04-23T02:58:36.959Z,8.43
2019-04-23T03:06:05.878Z,12.60
2019-04-23T03:08:42.692Z,9.50
2019-04-23T03:13:51.587Z,11.17
2019-04-23T03:21:31.452Z,9.50
2019-04-23T03:24:11.127Z,10.53
2019-04-23T03:29:16.260Z,10.57
2019-04-23T03:34:46.361Z,10.00
2019-04-23T03:38:55.608Z,12.13
2019-04-23T03:41:50.353Z,10.50
2019-04-23T03:44:06.668Z,12.63
2019-04-23T03:46:36.651Z,9.50
2019-04-23T03:49:07.731Z,10.43
2019-04-23T03:51:46.785Z,10.43
2019-04-23T03:54:25.841Z,11.17
2019-04-23T03:56:56.247Z,9.83
2019-04-23T03:59:20.121Z,13.00
2019-04-23T04:01:45.447Z,12.33
2019-04-23T04:06:50.178Z,14.57
2019-04-23T04:09:28.701Z,11.63
2019-04-23T04:11:33.534Z,13.17
2019-04-23T04:16:49.109Z,10.23
2019-04-23T04:19:25.167Z,12.93
2019-04-23T04:24:36.936Z,11.97
2019-04-23T04:29:54.992Z,12.03
2019-04-23T04:35:12.626Z,14.00
2019-04-23T04:39:49.980Z,11.83
2019-04-23T04:42:12.491Z,14.63
2019-04-23T04:47:09.657Z,11.53
2019-04-23T04:49:51.641Z,12.37
2019-04-23T04:55:00.099Z,11.03
2019-04-23T04:57:20.413Z,11.70
2019-04-23T05:04:55.969Z,11.43
2019-04-23T05:07:18.674Z,12.00
2019-04-23T05:10:08.041Z,11.80
2019-04-23T05:12:18.938Z,13.43
2019-04-23T05:17:27.592Z,12.80
2019-04-23T05:19:51.159Z,16.43
2019-04-23T05:22:22.509Z,11.90
2019-04-23T05:24:48.349Z,11.17
2019-04-23T05:27:19.296Z,12.77
2019-04-23T05:29:55.937Z,12.30
2019-04-23T05:32:19.359Z,12.67
2019-04-23T05:34:50.089Z,15.10
2019-04-23T05:37:20.523Z,13.93
2019-04-23T05:40:14.475Z,12.63
2019-04-23T05:42:27.849Z,11.73
2019-04-23T05:44:54.304Z,13.63
2019-04-23T05:47:27.374Z,13.57
2019-04-23T05:52:29.777Z,12.30
2019-04-23T05:55:01.505Z,14.53
2019-04-23T05:57:20.660Z,13.83
2019-04-23T05:59:54.846Z,13.30
2019-04-23T06:02:26.673Z,14.57
2019-04-23T06:04:57.178Z,11.53
2019-04-23T06:07:35.781Z,17.27
2019-04-23T06:10:03.237Z,15.43
2019-04-23T06:12:31.424Z,14.93
2019-04-23T06:14:57.564Z,13.67
2019-04-23T06:17:24.970Z,15.37
2019-04-23T06:20:02.860Z,13.07
2019-04-23T06:22:38.973Z,15.97
2019-04-23T06:25:30.753Z,12.30
2019-04-23T06:27:32.305Z,12.97
2019-04-23T06:30:03.031Z,13.30
2019-04-23T06:32:35.801Z,12.63
2019-04-23T06:35:08.686Z,15.70
2019-04-23T06:37:49.593Z,13.87
2019-04-23T06:40:12.123Z,12.13
2019-04-23T06:42:37.585Z,13.00
2019-04-23T06:45:08.054Z,12.80
2019-04-23T06:47:36.118Z,17.50
2019-04-23T06:50:04.986Z,13.83
2019-04-23T06:52:31.847Z,16.43
2019-04-23T06:55:13.460Z,13.60
2019-04-23T06:57:33.584Z,14.03
2019-04-23T07:00:17.205Z,14.17
2019-04-23T07:02:44.509Z,14.67
2019-04-23T07:05:21.117Z,16.23
2019-04-23T07:07:50.001Z,16.53
2019-04-23T07:15:32.174Z,14.30
2019-04-23T07:17:46.605Z,14.67
2019-04-23T07:22:53.029Z,17.93
2019-04-23T07:27:51.222Z,16.60
2019-04-23T07:32:49.731Z,14.83
2019-04-23T07:35:15.841Z,15.80
2019-04-23T07:38:02.979Z,18.50
2019-04-23T07:40:35.147Z,17.87
2019-04-23T07:43:08.043Z,13.80
2019-04-23T07:46:02.334Z,15.57
2019-04-23T07:48:28.878Z,14.10
2019-04-23T07:50:59.883Z,14.03
2019-04-23T07:53:42.866Z,13.17
2019-04-23T07:56:08.704Z,16.00
2019-04-23T08:01:03.685Z,14.43
2019-04-23T08:06:10.184Z,14.43
2019-04-23T08:08:36.205Z,14.73
2019-04-23T08:11:30.622Z,15.13
2019-04-23T08:13:58.756Z,12.07
2019-04-23T08:16:25.838Z,12.63
2019-04-23T08:29:26.785Z,16.73
2019-04-23T08:34:38.673Z,14.60
2019-04-23T08:37:05.146Z,13.53
2019-04-23T08:39:41.566Z,12.10
2019-04-23T08:42:28.667Z,13.67
2019-04-23T08:54:58.375Z,17.00
2019-04-23T08:57:19.304Z,16.67
2019-04-23T09:04:55.326Z,16.70
2019-04-23T09:07:22.086Z,14.80
2019-04-23T09:09:50.883Z,19.20
2019-04-23T09:12:24.155Z,22.17
2019-04-23T09:14:50.983Z,16.10
2019-04-23T09:20:06.524Z,15.53
2019-04-23T09:24:55.706Z,18.00
2019-04-23T09:27:27.449Z,15.17
2019-04-23T09:38:03.673Z,16.03
2019-04-23T09:41:04.553Z,15.90
2019-04-23T09:43:43.328Z,16.37
2019-04-23T09:46:12.362Z,18.43
2019-04-23T09:48:44.272Z,15.83
2019-04-23T09:51:09.948Z,14.73
2019-04-23T09:53:46.892Z,18.27
2019-04-23T09:56:07.318Z,16.70
2019-04-23T09:58:46.330Z,16.73
2019-04-23T10:03:47.933Z,21.60
2019-04-23T10:06:14.511Z,17.27
2019-04-23T10:08:46.435Z,19.90
2019-04-23T10:11:09.652Z,21.20
2019-04-23T10:13:40.469Z,14.87
2019-04-23T10:16:12.254Z,15.37
2019-04-23T10:18:41.463Z,16.83
2019-04-23T10:21:11.283Z,22.20
2019-04-23T10:23:41.246Z,18.10
2019-04-23T10:26:10.290Z,23.83
2019-04-23T10:28:42.078Z,19.57
2019-04-23T10:31:12.619Z,18.83
2019-04-23T10:33:42.091Z,17.67
2019-04-23T10:36:15.143Z,19.47
2019-04-23T10:38:53.998Z,19.60
2019-04-23T10:41:15.984Z,22.17
2019-04-23T10:43:48.808Z,21.77
2019-04-23T10:47:02.720Z,23.37
2019-04-23T10:49:51.763Z,19.50
2019-04-23T10:52:16.871Z,23.67
2019-04-23T10:57:03.896Z,22.33
2019-04-23T10:59:47.235Z,24.13
2019-04-23T11:02:34.970Z,20.00
2019-04-23T11:04:54.191Z,19.90
2019-04-23T11:07:28.458Z,21.50
2019-04-23T11:09:55.697Z,21.37
2019-04-23T11:12:32.072Z,22.97
2019-04-23T11:14:58.425Z,23.53
2019-04-23T11:17:33.125Z,32.57
2019-04-23T11:20:01.388Z,23.20
2019-04-23T11:22:42.484Z,24.53
2019-04-23T11:25:04.199Z,25.17
2019-04-23T11:27:40.577Z,22.90
2019-04-23T11:35:14.311Z,21.27
2019-04-23T11:37:41.185Z,22.60
2019-04-23T11:40:01.088Z,22.43
2019-04-23T11:42:38.069Z,24.43
2019-04-23T11:45:07.003Z,25.33
2019-04-23T11:48:04.873Z,21.53
2019-04-23T11:52:41.551Z,23.57
2019-04-23T11:55:22.811Z,22.33
2019-04-23T11:57:40.767Z,22.13
2019-04-23T12:00:05.572Z,24.03
2019-04-23T12:02:49.642Z,27.07
2019-04-23T12:05:41.583Z,23.37
2019-04-23T12:08:23.283Z,24.33
2019-04-23T12:10:51.919Z,24.17
2019-04-23T12:13:20.406Z,26.97
2019-04-23T12:15:51.728Z,27.00
2019-04-23T12:18:24.051Z,26.87
2019-04-23T12:20:41.228Z,22.67
2019-04-23T12:23:31.660Z,21.17
2019-04-23T12:26:13.549Z,21.70
2019-04-23T12:28:23.526Z,23.57
2019-04-23T12:30:50.521Z,23.10
2019-04-23T12:33:30.166Z,25.97
2019-04-23T12:35:49.982Z,22.30
2019-04-23T12:43:28.606Z,24.47
2019-04-23T12:45:47.330Z,24.37
2019-04-23T12:56:06.987Z,25.40
2019-04-23T13:01:05.524Z,26.97
2019-04-23T13:03:29.861Z,28.30
2019-04-23T13:05:57.428Z,22.63
2019-04-23T13:11:21.554Z,27.03
2019-04-23T13:13:43.514Z,27.13
2019-04-23T13:16:25.489Z,25.53
2019-04-23T13:18:38.129Z,29.20
2019-04-23T13:21:15.761Z,25.87
2019-04-23T13:23:34.553Z,24.77
2019-04-23T13:25:59.826Z,21.93
2019-04-23T13:28:37.717Z,24.97
2019-04-23T13:36:17.711Z,23.30
2019-04-23T13:38:41.721Z,28.27
2019-04-23T13:41:17.422Z,26.33
2019-04-23T13:43:47.867Z,31.67
2019-04-23T13:46:13.204Z,32.87
2019-04-23T13:48:40.049Z,30.90
2019-04-23T13:51:21.126Z,34.37
2019-04-23T13:59:07.001Z,36.97
2019-04-23T14:01:25.724Z,32.37
2019-04-23T14:03:48.047Z,35.87
2019-04-23T14:08:53.671Z,30.60
2019-04-23T14:11:23.195Z,30.70
2019-04-23T14:14:05.829Z,29.10
2019-04-23T14:16:33.087Z,34.60
2019-04-23T14:24:08.342Z,38.20
2019-04-23T14:26:33.953Z,31.90
2019-04-23T14:28:55.282Z,31.80
2019-04-23T14:31:21.875Z,31.67
2019-04-23T14:39:20.046Z,33.53
2019-04-23T14:41:26.161Z,34.97
2019-04-23T14:44:10.468Z,36.80
2019-04-23T14:49:11.224Z,38.20
2019-04-23T14:54:15.788Z,40.47
2019-04-23T14:56:59.361Z,38.10
2019-04-23T14:59:10.619Z,38.60
2019-04-23T15:01:44.143Z,39.90
2019-04-23T15:04:10.977Z,38.20
2019-04-23T15:06:50.794Z,37.10
2019-04-23T15:09:24.124Z,38.60
2019-04-23T15:11:57.605Z,37.50
2019-04-23T15:14:17.656Z,40.87
2019-04-23T15:16:51.465Z,37.73
2019-04-23T15:19:28.257Z,35.93
2019-04-23T15:24:30.493Z,36.77
2019-04-23T15:29:08.654Z,37.77
2019-04-23T15:31:58.936Z,36.67
2019-04-23T15:42:08.835Z,32.00
2019-04-23T15:44:41.831Z,33.53
2019-04-23T15:47:01.930Z,33.03
2019-04-23T15:49:28.285Z,31.10
2019-04-23T15:52:17.078Z,29.87
2019-04-23T15:54:35.414Z,28.13
2019-04-23T15:59:33.238Z,28.07
2019-04-23T16:01:42.529Z,28.70
2019-04-23T16:04:05.356Z,28.57
2019-04-23T16:06:36.881Z,28.70
2019-04-23T16:09:33.417Z,29.23
2019-04-23T16:11:59.628Z,28.93
2019-04-23T16:14:42.788Z,31.90
2019-04-23T16:17:14.257Z,28.83
2019-04-23T16:19:59.678Z,28.07
2019-04-23T16:22:20.310Z,29.27
2019-04-23T16:25:00.954Z,27.23
2019-04-23T16:27:15.029Z,26.57
2019-04-23T16:32:52.468Z,31.30
2019-04-23T16:35:29.257Z,27.40
2019-04-23T16:37:55.569Z,27.07
2019-04-23T16:40:23.628Z,27.23
2019-04-23T16:42:53.913Z,30.23
2019-04-23T16:45:22.998Z,28.30
2019-04-23T16:47:49.352Z,25.80
2019-04-23T16:50:22.084Z,34.97
2019-04-23T16:52:56.871Z,34.40
2019-04-23T16:55:22.349Z,29.13
2019-04-23T16:57:57.398Z,29.33
2019-04-23T17:00:38.085Z,26.20
2019-04-23T17:02:59.891Z,28.63
2019-04-23T17:05:25.032Z,27.70
2019-04-23T17:08:24.832Z,30.03
2019-04-23T17:13:06.694Z,26.10
2019-04-23T17:15:34.637Z,25.50
2019-04-23T17:17:55.739Z,25.30
2019-04-23T17:20:31.961Z,24.57
2019-04-23T17:23:07.434Z,25.60
2019-04-23T17:25:26.533Z,24.53
2019-04-23T17:28:09.003Z,23.07
2019-04-23T17:30:33.658Z,23.77
2019-04-23T17:33:13.854Z,26.23
2019-04-23T17:36:07.414Z,23.27
2019-04-23T17:38:32.281Z,22.53
2019-04-23T17:41:05.879Z,23.67
2019-04-23T17:43:42.330Z,21.53
2019-04-23T17:46:05.421Z,21.30
2019-04-23T17:48:41.952Z,21.60
2019-04-23T17:53:49.527Z,21.43
2019-04-23T17:56:50.854Z,22.23
2019-04-23T18:03:55.591Z,21.67
2019-04-23T18:09:05.931Z,21.70
2019-04-23T18:13:57.918Z,19.83
2019-04-23T18:19:03.311Z,22.53
2019-04-23T18:27:05.093Z,19.67
2019-04-23T18:29:57.543Z,20.27
2019-04-23T18:32:18.303Z,19.17
2019-04-23T18:34:59.695Z,18.97
2019-04-23T18:37:17.940Z,20.13
2019-04-23T18:39:43.768Z,19.80
2019-04-23T18:42:27.431Z,19.67
2019-04-23T18:44:50.154Z,20.13
2019-04-23T18:47:26.085Z,25.93
2019-04-23T18:49:45.305Z,18.83
2019-04-23T18:52:26.017Z,20.23
2019-04-23T18:55:06.752Z,20.43
2019-04-23T19:02:37.261Z,18.33
2019-04-23T19:07:46.814Z,19.83
2019-04-23T19:10:17.097Z,21.03
2019-04-23T19:12:42.802Z,18.87
2019-04-23T19:17:50.499Z,24.70
2019-04-23T19:25:14.430Z,21.43
2019-04-23T19:27:50.288Z,19.47
2019-04-23T19:30:32.400Z,20.77
2019-04-23T19:32:48.913Z,21.20
2019-04-23T19:35:44.252Z,21.30
2019-04-23T19:37:55.435Z,19.70
2019-04-23T19:40:24.409Z,19.47
2019-04-23T19:42:55.286Z,20.57
2019-04-23T19:45:20.566Z,21.17
2019-04-23T19:48:07.337Z,20.47
2019-04-23T19:50:24.019Z,20.80
2019-04-23T19:55:24.220Z,22.13
2019-04-23T19:57:54.980Z,23.17
2019-04-23T20:00:33.864Z,20.83
2019-04-23T20:05:26.439Z,22.70
2019-04-23T20:08:08.741Z,21.40
2019-04-23T20:10:30.348Z,22.50
2019-04-23T20:12:53.972Z,22.30
2019-04-23T20:15:30.485Z,21.27
2019-04-23T20:17:54.009Z,22.10
2019-04-23T20:20:34.959Z,23.10
2019-04-23T20:28:15.379Z,24.63
2019-04-23T20:31:03.520Z,22.87
2019-04-23T20:34:09.099Z,26.13
2019-04-23T20:36:13.987Z,24.97
2019-04-23T20:38:48.592Z,28.30
2019-04-23T20:41:27.403Z,24.17
2019-04-23T20:44:01.893Z,25.97
2019-04-23T20:46:36.198Z,23.23
2019-04-23T20:51:24.504Z,26.00
2019-04-23T20:53:59.358Z,26.63
2019-04-23T20:56:30.085Z,25.60
2019-04-23T20:59:00.243Z,23.73
2019-04-23T21:01:46.831Z,24.60
2019-04-23T21:04:17.968Z,26.23
2019-04-23T21:06:54.596Z,27.10
2019-04-23T21:11:48.337Z,26.93
2019-04-23T21:14:31.928Z,26.70
2019-04-23T21:16:52.361Z,28.73
2019-04-23T21:19:20.903Z,28.17
2019-04-23T21:21:53.742Z,27.97
2019-04-23T21:24:17.318Z,28.93
2019-04-23T21:26:50.340Z,27.53
2019-04-23T21:29:13.521Z,27.27
2019-04-23T21:31:47.733Z,27.27
2019-04-23T21:34:18.019Z,30.97
2019-04-23T21:36:48.225Z,27.03
2019-04-23T21:39:28.274Z,26.10
2019-04-23T21:42:24.130Z,29.30
2019-04-23T21:44:46.907Z,26.30
2019-04-23T21:47:07.744Z,26.17
2019-04-23T21:52:17.978Z,24.87
2019-04-23T21:54:38.993Z,26.50
2019-04-23T21:57:00.522Z,29.37
2019-04-23T21:59:39.086Z,25.33
2019-04-23T22:02:06.804Z,23.03
2019-04-23T22:04:40.078Z,23.93
2019-04-23T22:07:29.383Z,25.43
2019-04-23T22:09:48.319Z,22.03
2019-04-23T22:14:39.910Z,25.93
2019-04-23T22:17:11.558Z,22.90
2019-04-23T22:19:44.956Z,23.43
2019-04-23T22:22:02.081Z,25.50
2019-04-23T22:24:48.625Z,31.53
2019-04-23T22:27:12.751Z,22.00
2019-04-23T22:29:42.041Z,20.47
2019-04-23T22:32:12.355Z,24.33
2019-04-23T22:34:50.270Z,23.47
2019-04-23T22:37:14.418Z,21.27
2019-04-23T22:39:45.671Z,26.43
2019-04-23T22:42:26.672Z,23.47
2019-04-23T22:44:57.637Z,23.80
2019-04-23T22:47:06.124Z,24.03
2019-04-23T22:49:53.140Z,31.50
2019-04-23T22:54:57.142Z,18.60
2019-04-23T22:57:13.195Z,27.33
2019-04-23T23:00:04.538Z,17.83
2019-04-23T23:02:51.897Z,18.30
2019-04-23T23:05:12.291Z,24.33
2019-04-23T23:07:47.730Z,23.20
2019-04-23T23:10:12.557Z,27.73
2019-04-23T23:12:52.926Z,26.43
2019-04-23T23:17:51.185Z,28.63
2019-04-23T23:20:23.744Z,23.27
2019-04-23T23:23:06.539Z,31.33
2019-04-23T23:25:19.393Z,31.37
2019-04-23T23:27:51.786Z,24.50
2019-04-23T23:32:51.243Z,19.73
2019-04-23T23:35:24.528Z,22.57
2019-04-23T23:37:54.066Z,22.73
2019-04-23T23:40:21.885Z,21.50
2019-04-23T23:43:02.371Z,27.53
2019-04-23T23:45:36.809Z,19.07
2019-04-23T23:47:51.585Z,24.80
2019-04-23T23:52:57.013Z,21.53
2019-04-23T23:55:25.027Z,20.40
2019-04-23T23:58:04.735Z,28.57
